Time;durP1;ratioP1;P1;durP2;ratioP2;P2;SDS_P1;SDS_P2;PMS_P1;PMS_P2;Temp;Humidity;BMP_temperature;BMP_pressure;BME280_temperature;BME280_humidity;BME280_pressure;Samples;Min_cycle;Max_cycle;Signal;HPM_P1;HPM_P2
2024/04/19 00:02:15;;;;;;;5.63;3.28;;;;;;;7.33;61.32;99049.81;5415792;26;20002;-64
2024/04/19 00:04:42;;;;;;;3.50;3.10;;;;;;;7.38;61.43;99044.22;5427620;26;20035;-64
2024/04/19 00:07:08;;;;;;;3.78;3.00;;;;;;;7.56;60.86;99045.88;5416021;26;20004;-65
2024/04/19 00:09:44;;;;;;;4.63;3.33;;;;;;;7.65;60.24;99037.78;5415633;26;20015;-64
2024/04/19 00:12:12;;;;;;;4.60;3.40;;;;;;;7.77;59.89;99037.94;5415644;26;20002;-65
2024/04/19 00:14:39;;;;;;;6.38;3.97;;;;;;;7.76;59.90;99033.63;5414180;26;20015;-64
2024/04/19 00:17:06;;;;;;;3.47;3.17;;;;;;;7.66;59.81;99028.53;5415829;26;20011;-65
2024/04/19 00:19:32;;;;;;;4.22;2.72;;;;;;;7.62;59.73;99024.81;5414222;26;20007;-64
2024/04/19 00:21:59;;;;;;;10.15;3.10;;;;;;;7.71;59.24;99022.94;5415685;26;20005;-63
2024/04/19 00:24:26;;;;;;;4.00;3.60;;;;;;;7.71;58.92;99020.22;5415721;26;20003;-64
2024/04/19 00:26:53;;;;;;;6.53;3.28;;;;;;;7.62;59.47;99019.38;5414184;26;20034;-65
2024/04/19 00:29:40;;;;;;;4.88;3.53;;;;;;;7.59;59.61;99014.59;5414471;26;20076;-65
2024/04/19 00:32:06;;;;;;;6.45;3.80;;;;;;;7.54;59.88;99009.34;5415595;26;20029;-65
2024/04/19 00:34:33;;;;;;;4.38;2.58;;;;;;;7.61;59.25;99012.38;5456435;26;20008;-65
2024/04/19 00:37:00;;;;;;;2.35;2.15;;;;;;;7.72;58.55;99016.38;5416221;26;20014;-63
2024/04/19 00:39:27;;;;;;;4.97;2.78;;;;;;;7.81;58.13;99016.41;5414049;26;20073;-64
2024/04/19 00:41:54;;;;;;;3.47;2.65;;;;;;;7.87;57.29;99010.50;5415443;26;20071;-64
2024/04/19 00:44:21;;;;;;;4.07;2.30;;;;;;;7.92;56.77;99014.19;5415467;26;20015;-64
2024/04/19 00:46:48;;;;;;;5.68;2.30;;;;;;;7.94;56.52;99009.22;5415572;26;20000;-64
2024/04/19 00:49:31;;;;;;;3.33;2.42;;;;;;;7.95;56.73;99006.19;5415659;26;20011;-65
2024/04/19 00:52:00;;;;;;;3.90;2.60;;;;;;;7.96;56.91;98998.84;5413750;26;20448;-64
2024/04/19 00:54:27;;;;;;;3.58;2.70;;;;;;;8.00;56.44;98999.81;5415512;26;20027;-64
2024/04/19 00:56:54;;;;;;;3.33;2.88;;;;;;;8.04;56.44;98992.63;5415927;26;19995;-63
2024/04/19 00:59:22;;;;;;;6.53;2.75;;;;;;;8.08;55.99;98997.09;5415561;26;19999;-64
2024/04/19 01:01:50;;;;;;;5.50;2.38;;;;;;;8.11;56.11;98988.31;5416041;26;20006;-64
2024/04/19 01:04:17;;;;;;;5.97;2.42;;;;;;;8.14;55.80;98995.00;5427891;26;20007;-64
2024/04/19 01:06:44;;;;;;;3.08;2.75;;;;;;;8.22;55.97;98988.00;5418903;26;20019;-63
2024/04/19 01:09:11;;;;;;;3.55;2.60;;;;;;;8.23;55.86;98984.94;5426798;26;20008;-64
2024/04/19 01:11:38;;;;;;;5.60;3.05;;;;;;;8.20;55.46;98982.88;5430142;26;20000;-64
2024/04/19 01:14:05;;;;;;;3.70;2.80;;;;;;;8.12;55.79;98981.75;5427644;26;20354;-64
2024/04/19 01:16:32;;;;;;;3.47;2.70;;;;;;;8.14;56.01;98978.72;5427583;26;19996;-64
2024/04/19 01:18:59;;;;;;;3.53;2.88;;;;;;;8.16;55.57;98984.63;5427018;26;20427;-64
2024/04/19 01:21:26;;;;;;;4.55;2.83;;;;;;;8.14;55.76;98979.50;5428006;26;20010;-64
2024/04/19 01:24:04;;;;;;;4.45;2.92;;;;;;;8.11;55.59;98968.50;5427084;26;20010;-63
2024/04/19 01:26:31;;;;;;;3.55;2.78;;;;;;;8.07;55.46;98970.25;5425520;26;19996;-64
2024/04/19 01:28:57;;;;;;;6.00;2.80;;;;;;;8.06;55.28;98963.22;5426789;26;20003;-64
2024/04/19 01:31:24;;;;;;;4.20;3.08;;;;;;;8.08;54.98;98966.41;5428335;26;20002;-64
2024/04/19 01:33:51;;;;;;;5.63;3.03;;;;;;;8.03;55.15;98963.88;5440271;26;20052;-64
2024/04/19 01:36:17;;;;;;;6.72;3.08;;;;;;;8.03;54.85;98964.66;5428011;26;20441;-64
2024/04/19 01:38:47;;;;;;;5.28;3.13;;;;;;;8.03;54.74;98961.97;5427342;26;20008;-65
2024/04/19 01:41:14;;;;;;;4.93;2.85;;;;;;;8.03;54.53;98951.09;5430822;26;19992;-64
2024/04/19 01:43:44;;;;;;;4.32;2.70;;;;;;;8.00;54.70;98946.31;5430124;26;20014;-64
2024/04/19 01:46:11;;;;;;;5.35;3.20;;;;;;;7.97;54.41;98944.22;5430449;26;20675;-64
2024/04/19 01:48:38;;;;;;;6.53;3.00;;;;;;;7.95;54.69;98949.16;5436759;26;20444;-63
2024/04/19 01:51:05;;;;;;;3.70;2.75;;;;;;;7.92;54.52;98946.28;5437413;26;20006;-63
2024/04/19 01:53:31;;;;;;;4.63;2.97;;;;;;;7.93;54.77;98945.19;5436929;26;20004;-63
2024/04/19 01:55:58;;;;;;;7.72;3.53;;;;;;;7.93;54.64;98932.41;5435907;26;19999;-63
2024/04/19 01:58:40;;;;;;;4.78;3.20;;;;;;;7.94;54.69;98928.56;5418747;26;20002;-64
2024/04/19 02:01:06;;;;;;;4.55;3.22;;;;;;;7.94;54.88;98922.34;5418250;26;20011;-64
2024/04/19 02:03:33;;;;;;;7.05;3.33;;;;;;;7.94;54.83;98919.63;5425772;26;20340;-64
2024/04/19 02:06:06;;;;;;;7.30;3.47;;;;;;;7.93;54.85;98913.38;5421392;26;20004;-64
2024/04/19 02:08:33;;;;;;;5.18;3.80;;;;;;;7.95;54.98;98918.50;5417817;26;20452;-64
2024/04/19 02:11:02;;;;;;;5.65;3.45;;;;;;;7.97;54.53;98925.19;5417540;26;20384;-63
2024/04/19 02:13:29;;;;;;;5.10;3.45;;;;;;;7.94;54.57;98919.63;5417754;26;20353;-64
2024/04/19 02:15:56;;;;;;;4.75;3.50;;;;;;;7.87;54.68;98909.25;5415940;26;20032;-63
2024/04/19 02:18:23;;;;;;;5.97;4.00;;;;;;;7.84;55.14;98905.25;5415835;26;20072;-63
2024/04/19 02:20:50;;;;;;;8.82;4.22;;;;;;;7.84;55.26;98904.47;5417405;26;20017;-63
2024/04/19 02:23:35;;;;;;;5.65;3.75;;;;;;;7.85;55.19;98897.91;5417748;26;19995;-64
2024/04/19 02:26:03;;;;;;;5.78;4.32;;;;;;;7.80;55.63;98893.44;5417514;26;20011;-64
2024/04/19 02:31:15;;;;;;;5.90;4.15;;;;;;;7.77;55.63;98894.06;5417557;26;20340;-64
2024/04/19 02:33:44;;;;;;;7.25;4.63;;;;;;;7.74;55.53;98883.88;5427104;26;19998;-64
2024/04/19 02:36:11;;;;;;;6.82;4.28;;;;;;;7.73;55.61;98890.41;5418116;26;20011;-64
2024/04/19 02:38:38;;;;;;;11.30;5.43;;;;;;;7.72;55.83;98886.09;5417643;26;20011;-63
2024/04/19 02:41:05;;;;;;;8.95;4.65;;;;;;;7.70;55.78;98882.91;5417537;26;19996;-63
2024/04/19 02:43:32;;;;;;;6.55;4.60;;;;;;;7.69;56.22;98873.19;5417313;26;20110;-63
2024/04/19 02:46:05;;;;;;;7.50;4.88;;;;;;;7.70;56.24;98872.06;5417545;26;20076;-64
2024/04/19 02:48:33;;;;;;;10.43;5.85;;;;;;;7.73;56.06;98865.19;5415667;26;19996;-64
2024/04/19 02:51:01;;;;;;;7.82;5.25;;;;;;;7.74;56.12;98855.91;5416095;26;19996;-64
2024/04/19 02:53:31;;;;;;;7.90;4.70;;;;;;;7.75;56.07;98852.09;5417445;26;20012;-64
2024/04/19 02:55:58;;;;;;;5.53;4.75;;;;;;;7.76;56.40;98859.09;5417036;26;20006;-65
2024/04/19 02:58:25;;;;;;;8.18;4.82;;;;;;;7.76;56.29;98854.47;5417138;26;20000;-63
2024/04/19 03:00:52;;;;;;;9.63;5.22;;;;;;;7.75;56.69;98855.59;5416743;26;20003;-65
2024/04/19 03:03:19;;;;;;;10.20;5.70;;;;;;;7.75;56.16;98858.31;5420918;26;20042;-64
2024/04/19 03:05:45;;;;;;;6.70;5.13;;;;;;;7.74;56.49;98864.88;5424313;26;20459;-64
2024/04/19 03:08:12;;;;;;;8.40;5.63;;;;;;;7.73;56.63;98863.28;5444933;26;20456;-64
2024/04/19 03:10:40;;;;;;;8.23;4.95;;;;;;;7.70;56.78;98869.34;5416453;26;20452;-64
2024/04/19 03:13:08;;;;;;;7.35;5.32;;;;;;;7.70;57.17;98877.47;5417207;26;20361;-64
2024/04/19 03:15:37;;;;;;;8.40;5.30;;;;;;;7.78;56.93;98873.16;5416874;26;20000;-64
2024/04/19 03:18:05;;;;;;;8.35;5.35;;;;;;;7.89;56.94;98864.38;5416759;26;20000;-65
2024/04/19 03:20:32;;;;;;;7.15;4.93;;;;;;;8.00;56.75;98872.19;5416524;26;20027;-64
2024/04/19 03:22:58;;;;;;;6.43;5.00;;;;;;;7.98;56.77;98855.41;5416772;26;20008;-63
2024/04/19 03:25:26;;;;;;;6.38;4.45;;;;;;;7.97;57.10;98845.66;5417029;26;20449;-63
2024/04/19 03:27:53;;;;;;;8.18;4.75;;;;;;;7.99;57.12;98840.69;5416788;26;20000;-63
2024/04/19 03:30:29;;;;;;;12.05;7.55;;;;;;;8.06;57.47;98828.25;5416564;26;19995;-64
2024/04/19 03:32:56;;;;;;;10.52;5.90;;;;;;;8.11;57.71;98827.25;5416805;26;20006;-64
2024/04/19 03:35:23;;;;;;;9.05;4.93;;;;;;;8.11;57.33;98819.91;5427878;26;20004;-64
2024/04/19 03:37:49;;;;;;;6.38;4.70;;;;;;;8.17;57.09;98817.81;5444553;26;20018;-64
2024/04/19 03:40:16;;;;;;;9.00;5.03;;;;;;;8.17;57.74;98813.16;5416042;26;20010;-64
2024/04/19 03:42:47;;;;;;;6.93;4.85;;;;;;;8.24;57.29;98828.19;5416642;26;19999;-63
2024/04/19 03:48:01;;;;;;;6.57;4.70;;;;;;;8.20;57.39;98817.19;5416361;26;20024;-64
2024/04/19 03:50:28;;;;;;;7.43;5.50;;;;;;;8.19;57.71;98805.50;5416442;26;20479;-64
2024/04/19 03:52:54;;;;;;;5.97;4.90;;;;;;;8.21;58.26;98810.63;5416502;26;19996;-64
2024/04/19 03:55:21;;;;;;;8.05;5.05;;;;;;;8.24;58.02;98804.53;5416465;26;20011;-65
2024/04/19 03:57:48;;;;;;;6.78;5.32;;;;;;;8.24;58.12;98811.88;5416208;26;20338;-63
2024/04/19 04:00:17;;;;;;;7.28;4.80;;;;;;;8.19;58.66;98804.72;5414457;26;20318;-65
2024/04/19 04:02:44;;;;;;;6.65;5.10;;;;;;;8.16;58.60;98795.28;5415967;26;20014;-65
2024/04/19 04:05:11;;;;;;;8.80;5.10;;;;;;;8.13;58.90;98781.56;5427583;26;20020;-66
2024/04/19 04:07:38;;;;;;;7.60;5.15;;;;;;;8.13;59.14;98779.63;5416386;26;20004;-64
2024/04/19 04:10:05;;;;;;;7.07;5.10;;;;;;;8.11;59.29;98784.59;5413927;26;20041;-63
2024/04/19 04:12:32;;;;;;;8.20;5.70;;;;;;;8.07;59.33;98780.94;5415681;26;20008;-63
2024/04/19 04:14:59;;;;;;;7.65;5.30;;;;;;;8.02;59.54;98778.41;5416965;26;20004;-63
2024/04/19 04:17:26;;;;;;;6.57;5.25;;;;;;;7.96;60.18;98771.53;5417003;26;20011;-63
2024/04/19 04:19:53;;;;;;;6.43;5.70;;;;;;;7.94;59.98;98781.16;5416789;26;19992;-63
2024/04/19 04:22:20;;;;;;;9.52;5.82;;;;;;;7.90;60.28;98770.94;5413893;26;20018;-64
2024/04/19 04:24:47;;;;;;;6.90;5.25;;;;;;;7.84;61.06;98774.16;5444398;26;20000;-64
2024/04/19 04:27:15;;;;;;;6.75;5.78;;;;;;;7.79;60.90;98771.59;5416742;26;20076;-64
2024/04/19 04:29:42;;;;;;;8.30;5.85;;;;;;;7.79;61.00;98771.59;5416283;26;19999;-65
2024/04/19 04:32:10;;;;;;;8.57;6.15;;;;;;;7.77;61.17;98774.63;5415867;26;20352;-64
2024/04/19 04:34:36;;;;;;;8.05;6.20;;;;;;;7.73;61.47;98762.84;5426991;26;20003;-65
2024/04/19 04:37:03;;;;;;;7.95;5.93;;;;;;;7.77;61.52;98765.69;5443450;26;20414;-65
2024/04/19 04:39:30;;;;;;;8.18;5.72;;;;;;;7.77;61.36;98761.06;5415011;26;19996;-64
2024/04/19 04:41:57;;;;;;;8.00;6.13;;;;;;;7.78;61.75;98751.81;5415354;26;20076;-65
2024/04/19 04:44:24;;;;;;;8.35;5.95;;;;;;;7.83;61.83;98757.06;5415393;26;20521;-65
2024/04/19 04:46:50;;;;;;;9.65;6.25;;;;;;;7.87;61.83;98754.50;5415609;26;20007;-64
2024/04/19 04:49:17;;;;;;;8.23;6.43;;;;;;;7.88;61.71;98751.47;5413505;26;20000;-65
2024/04/19 04:51:44;;;;;;;10.93;6.25;;;;;;;7.90;61.62;98748.41;5415000;26;20015;-64
2024/04/19 04:54:11;;;;;;;10.20;7.05;;;;;;;7.88;61.61;98758.81;5415533;26;20023;-65
2024/04/19 04:56:38;;;;;;;7.65;6.50;;;;;;;7.76;62.34;98745.09;5414254;26;20004;-65
2024/04/19 04:59:04;;;;;;;9.45;7.03;;;;;;;7.75;62.53;98738.88;5415032;26;19999;-65
2024/04/19 05:01:31;;;;;;;8.57;7.13;;;;;;;7.78;63.00;98743.66;5414858;26;20451;-65
2024/04/19 05:03:58;;;;;;;11.73;7.22;;;;;;;7.78;62.68;98738.22;5426330;26;20071;-65
2024/04/19 05:06:25;;;;;;;10.20;7.72;;;;;;;7.75;62.95;98728.03;5415715;26;20072;-64
2024/04/19 05:08:51;;;;;;;8.57;6.50;;;;;;;7.76;63.08;98724.19;5443559;26;20000;-64
2024/04/19 05:11:20;;;;;;;9.02;6.68;;;;;;;7.75;63.06;98728.03;5413444;26;20007;-67
2024/04/19 05:13:46;;;;;;;8.35;6.63;;;;;;;7.76;63.33;98723.38;5415381;26;20006;-66
2024/04/19 05:16:13;;;;;;;9.05;6.38;;;;;;;7.73;63.22;98718.63;5418349;26;20009;-66
2024/04/19 05:18:40;;;;;;;8.07;6.60;;;;;;;7.75;62.97;98722.59;5418867;26;20332;-65
2024/04/19 05:21:08;;;;;;;6.63;5.93;;;;;;;7.72;63.42;98722.44;5418167;26;20471;-63
2024/04/19 05:23:35;;;;;;;7.28;6.53;;;;;;;7.62;63.52;98715.44;5418481;26;19996;-65
2024/04/19 05:26:02;;;;;;;8.50;6.18;;;;;;;7.63;63.80;98700.78;5418077;26;19999;-64
2024/04/19 05:28:29;;;;;;;7.28;6.57;;;;;;;7.65;63.78;98695.81;5416534;26;20006;-65
2024/04/19 05:30:57;;;;;;;7.43;5.70;;;;;;;7.64;63.75;98694.22;5417881;26;20003;-65
2024/04/19 05:33:24;;;;;;;7.30;6.03;;;;;;;7.61;63.69;98697.56;5423311;26;19999;-65
2024/04/19 05:35:50;;;;;;;8.25;5.82;;;;;;;7.65;63.87;98703.16;5424435;26;20520;-63
2024/04/19 05:38:17;;;;;;;6.43;5.78;;;;;;;7.65;64.04;98698.53;5418191;26;20449;-62
2024/04/19 05:40:44;;;;;;;7.47;6.43;;;;;;;7.66;64.06;98694.69;5417639;26;20000;-66
2024/04/19 05:43:10;;;;;;;9.68;6.05;;;;;;;7.63;63.72;98692.63;5418468;26;19999;-64
2024/04/19 05:45:37;;;;;;;8.40;5.50;;;;;;;7.63;64.13;98687.22;5416327;26;20011;-65
2024/04/19 05:48:06;;;;;;;10.13;6.05;;;;;;;7.68;63.96;98688.94;5417947;26;20003;-64
2024/04/19 05:50:33;;;;;;;7.60;6.07;;;;;;;7.59;64.14;98678.91;5415998;26;20482;-64
2024/04/19 05:52:59;;;;;;;6.57;5.88;;;;;;;7.60;64.43;98671.56;5418254;26;20007;-64
2024/04/19 05:55:26;;;;;;;6.55;5.88;;;;;;;7.61;64.37;98673.16;5417883;26;20051;-64
2024/04/19 05:57:53;;;;;;;7.75;6.22;;;;;;;7.60;64.29;98669.63;5416408;26;20006;-65
2024/04/19 06:00:20;;;;;;;6.55;5.80;;;;;;;7.59;64.27;98664.53;5415737;26;20010;-65
2024/04/19 06:02:46;;;;;;;6.13;5.30;;;;;;;7.55;64.57;98658.16;5418389;26;20069;-65
2024/04/19 06:05:14;;;;;;;6.03;5.43;;;;;;;7.53;64.59;98647.66;5442332;26;20464;-64
2024/04/19 06:07:40;;;;;;;6.50;5.70;;;;;;;7.58;64.58;98650.16;5446658;26;20044;-66
2024/04/19 06:10:07;;;;;;;7.03;6.15;;;;;;;7.59;64.75;98656.41;5416332;26;20010;-66
2024/04/19 06:12:34;;;;;;;7.35;6.13;;;;;;;7.57;64.50;98650.50;5418088;26;20469;-66
2024/04/19 06:15:03;;;;;;;6.80;5.78;;;;;;;7.53;64.80;98649.56;5416326;26;20000;-66
2024/04/19 06:17:30;;;;;;;8.95;6.18;;;;;;;7.44;65.18;98652.31;5417776;26;20009;-66
2024/04/19 06:19:56;;;;;;;7.88;6.35;;;;;;;7.42;65.25;98638.25;5415722;26;20015;-64
2024/04/19 06:22:23;;;;;;;8.75;5.38;;;;;;;7.39;65.37;98635.41;5415801;26;20007;-64
2024/04/19 06:24:50;;;;;;;7.18;5.95;;;;;;;7.42;65.51;98635.53;5417470;26;19996;-63
2024/04/19 06:27:17;;;;;;;7.20;5.10;;;;;;;7.48;65.16;98628.84;5417671;26;20409;-63
2024/04/19 06:29:43;;;;;;;7.45;5.75;;;;;;;7.45;64.83;98626.00;5418014;26;20008;-63
2024/04/19 06:32:10;;;;;;;10.43;5.70;;;;;;;7.44;64.82;98621.69;5415447;26;20007;-64
2024/04/19 06:34:37;;;;;;;5.68;4.25;;;;;;;7.38;64.18;98618.34;5428646;26;20369;-65
2024/04/19 06:37:04;;;;;;;7.13;4.43;;;;;;;7.32;64.47;98610.72;5415755;26;20007;-63
2024/04/19 06:39:31;;;;;;;5.93;4.30;;;;;;;7.37;64.25;98615.94;5417709;26;20462;-64
2024/04/19 06:41:59;;;;;;;7.20;4.53;;;;;;;7.38;64.34;98603.97;5417519;26;20007;-64
2024/04/19 06:44:26;;;;;;;6.75;4.05;;;;;;;7.42;63.87;98603.00;5417519;26;20416;-67
2024/04/19 06:46:52;;;;;;;4.85;3.55;;;;;;;7.44;63.40;98597.28;5475830;26;20007;-64
2024/04/19 06:49:19;;;;;;;3.95;3.58;;;;;;;7.49;63.24;98587.03;5417172;26;20053;-63
2024/04/19 06:51:46;;;;;;;6.35;4.25;;;;;;;7.60;63.25;98593.66;5416807;26;20072;-64
2024/04/19 06:54:13;;;;;;;4.95;4.00;;;;;;;7.63;62.97;98581.38;5415526;26;20119;-64
2024/04/19 06:56:40;;;;;;;4.68;3.83;;;;;;;7.65;62.24;98583.75;5475579;26;19999;-64
2024/04/19 06:59:07;;;;;;;3.92;3.35;;;;;;;7.61;62.21;98570.03;5415688;26;20004;-66
2024/04/19 07:01:35;;;;;;;5.05;3.92;;;;;;;7.54;62.63;98570.56;5414888;26;19996;-65
2024/04/19 07:04:02;;;;;;;3.97;3.38;;;;;;;7.57;63.05;98567.19;5428378;26;20026;-65
2024/04/19 07:06:29;;;;;;;4.20;3.80;;;;;;;7.66;62.74;98567.16;5417061;26;20015;-65
2024/04/19 07:09:07;;;;;;;6.00;4.05;;;;;;;7.67;62.58;98552.47;5416930;26;20014;-65
2024/04/19 07:11:34;;;;;;;4.43;3.70;;;;;;;7.68;62.77;98558.69;5417190;26;20007;-64
2024/04/19 07:14:00;;;;;;;6.07;4.05;;;;;;;7.67;62.54;98552.47;5416967;26;20000;-64
2024/04/19 07:16:27;;;;;;;5.47;4.07;;;;;;;7.72;63.21;98554.19;5416900;26;20073;-64
2024/04/19 07:18:54;;;;;;;5.00;4.10;;;;;;;7.76;62.93;98547.75;5414979;26;20003;-64
2024/04/19 07:21:20;;;;;;;6.88;4.43;;;;;;;7.79;62.92;98538.94;5416664;26;20000;-64
2024/04/19 07:23:47;;;;;;;5.88;4.00;;;;;;;7.82;62.91;98548.38;5415277;26;20029;-64
2024/04/19 07:26:14;;;;;;;6.13;4.05;;;;;;;7.81;62.98;98546.78;5416656;26;20333;-64
2024/04/19 07:28:41;;;;;;;5.30;3.80;;;;;;;7.82;63.21;98543.75;5417220;26;20010;-63
2024/04/19 07:31:07;;;;;;;4.93;4.10;;;;;;;7.85;63.50;98534.94;5416640;26;19995;-63
2024/04/19 07:33:34;;;;;;;3.95;3.55;;;;;;;7.89;63.56;98524.22;5424334;26;20026;-64
2024/04/19 07:36:01;;;;;;;6.55;4.30;;;;;;;7.87;63.42;98521.03;5419906;26;20344;-63
2024/04/19 07:38:28;;;;;;;4.45;3.85;;;;;;;7.88;63.37;98522.63;5415712;26;20057;-63
2024/04/19 07:40:54;;;;;;;8.30;5.18;;;;;;;7.93;63.26;98517.00;5416287;26;20027;-63
2024/04/19 07:43:21;;;;;;;6.45;4.35;;;;;;;7.98;63.01;98508.63;5416776;26;20000;-62
2024/04/19 07:45:48;;;;;;;7.53;4.70;;;;;;;7.95;62.98;98500.38;5416441;26;19995;-62
2024/04/19 07:48:16;;;;;;;5.57;4.72;;;;;;;7.93;63.50;98491.75;5416318;26;20022;-62
2024/04/19 07:50:45;;;;;;;5.95;4.55;;;;;;;7.92;63.64;98485.53;5416315;26;20005;-62
2024/04/19 07:53:12;;;;;;;9.27;5.05;;;;;;;7.95;63.96;98487.59;5416332;26;20031;-62
2024/04/19 07:55:42;;;;;;;9.82;5.15;;;;;;;8.03;63.91;98480.50;5414410;26;20010;-62
2024/04/19 07:58:10;;;;;;;5.55;4.97;;;;;;;8.11;63.77;98479.63;5414274;26;20031;-62
2024/04/19 08:00:37;;;;;;;8.18;4.80;;;;;;;8.16;63.59;98477.50;5415847;26;20003;-62
2024/04/19 08:03:04;;;;;;;5.60;4.82;;;;;;;8.13;63.63;98482.81;5416313;26;20455;-62
2024/04/19 08:05:31;;;;;;;5.47;4.72;;;;;;;8.10;63.72;98473.41;5426819;26;20003;-62
2024/04/19 08:07:59;;;;;;;6.50;5.05;;;;;;;8.09;63.50;98460.16;5416351;26;20014;-61
2024/04/19 08:10:26;;;;;;;6.82;5.00;;;;;;;8.12;63.73;98464.94;5415609;26;20093;-62
2024/04/19 08:12:57;;;;;;;5.90;4.80;;;;;;;8.13;63.88;98459.16;5416162;26;20000;-62
2024/04/19 08:15:24;;;;;;;10.00;4.75;;;;;;;8.19;63.24;98465.19;5414300;26;20003;-62
2024/04/19 08:17:51;;;;;;;5.95;5.10;;;;;;;8.20;63.72;98455.91;5414231;26;19995;-62
2024/04/19 08:20:18;;;;;;;7.47;5.72;;;;;;;8.25;63.83;98447.56;5415631;26;20072;-62
2024/04/19 08:22:44;;;;;;;6.63;5.75;;;;;;;8.30;63.83;98450.06;5416022;26;20006;-62
2024/04/19 08:25:11;;;;;;;6.38;4.78;;;;;;;8.38;63.96;98451.16;5413911;26;20000;-63
2024/04/19 08:27:39;;;;;;;6.05;4.78;;;;;;;8.43;63.26;98449.00;5414159;26;20068;-61
2024/04/19 08:30:06;;;;;;;5.93;4.88;;;;;;;8.43;63.37;98440.06;5415874;26;20010;-62
2024/04/19 08:32:33;;;;;;;6.30;5.07;;;;;;;8.40;63.70;98435.31;5413584;26;20476;-63
2024/04/19 08:35:00;;;;;;;6.60;5.15;;;;;;;8.38;63.34;98432.91;5427145;26;20007;-62
2024/04/19 08:37:26;;;;;;;4.95;4.43;;;;;;;8.37;63.72;98439.47;5431855;26;20349;-62
2024/04/19 08:39:53;;;;;;;6.22;4.82;;;;;;;8.37;63.57;98433.25;5415669;26;20011;-63
2024/04/19 08:42:20;;;;;;;7.07;4.85;;;;;;;8.36;63.98;98435.16;5415462;26;20326;-62
2024/04/19 08:44:48;;;;;;;6.70;5.72;;;;;;;8.37;64.00;98431.34;5415599;26;20015;-62
2024/04/19 08:47:16;;;;;;;6.78;5.50;;;;;;;8.46;64.65;98423.88;5415873;26;20014;-62
2024/04/19 08:49:43;;;;;;;6.30;4.40;;;;;;;8.52;63.91;98424.44;5415093;26;20328;-63
2024/04/19 08:52:11;;;;;;;5.20;4.65;;;;;;;8.47;64.44;98417.31;5415608;26;20040;-62
2024/04/19 08:55:04;;;;;;;5.40;4.70;;;;;;;8.53;64.61;98417.88;5415793;26;20004;-62
2024/04/19 08:57:35;;;;;;;6.80;4.95;;;;;;;8.66;64.22;98415.97;5473640;26;19995;-64
2024/04/19 09:00:05;;;;;;;6.07;4.60;;;;;;;8.68;64.47;98411.00;5473629;26;20445;-62
2024/04/19 09:02:40;;;;;;;7.68;4.80;;;;;;;8.68;64.09;98408.28;5469517;26;20065;-63
2024/04/19 09:05:07;;;;;;;5.63;4.63;;;;;;;8.64;64.11;98401.94;5415288;26;20053;-63
2024/04/19 09:07:34;;;;;;;7.03;4.70;;;;;;;8.65;64.14;98393.44;5415527;26;20004;-63
2024/04/19 09:10:01;;;;;;;6.60;5.90;;;;;;;8.63;64.13;98400.34;5415438;26;20433;-64
2024/04/19 09:12:32;;;;;;;9.05;6.18;;;;;;;8.67;63.96;98393.09;5415060;26;20003;-63
2024/04/19 09:15:00;;;;;;;6.82;4.93;;;;;;;8.64;64.10;98391.06;5415082;26;20000;-64
2024/04/19 09:17:27;;;;;;;7.43;5.03;;;;;;;8.69;64.19;98388.91;5413418;26;20007;-63
2024/04/19 09:19:56;;;;;;;6.38;5.20;;;;;;;8.75;64.64;98384.06;5414833;26;20003;-63
2024/04/19 09:22:23;;;;;;;7.78;4.47;;;;;;;8.79;64.26;98384.97;5414792;26;19996;-64
2024/04/19 09:24:53;;;;;;;5.70;4.50;;;;;;;8.77;63.85;98388.03;5414866;26;19999;-62
2024/04/19 09:27:23;;;;;;;5.72;4.57;;;;;;;8.72;63.97;98384.72;5414561;26;20073;-62
2024/04/19 09:29:50;;;;;;;11.93;5.13;;;;;;;8.65;63.93;98382.56;5414561;26;20004;-62
2024/04/19 09:32:20;;;;;;;6.18;5.45;;;;;;;8.64;64.27;98377.47;5414611;26;20072;-63
2024/04/19 09:34:47;;;;;;;5.18;4.20;;;;;;;8.63;64.30;98373.16;5454143;26;20336;-63
2024/04/19 09:37:15;;;;;;;5.10;4.60;;;;;;;8.67;64.60;98365.91;5412949;26;20020;-62
2024/04/19 09:39:42;;;;;;;6.95;4.60;;;;;;;8.75;64.75;98365.03;5414317;26;19999;-63
2024/04/19 09:42:08;;;;;;;5.15;4.20;;;;;;;8.80;64.46;98364.78;5414110;26;20004;-62
2024/04/19 09:44:37;;;;;;;5.45;3.90;;;;;;;8.73;63.83;98368.06;5415181;26;20383;-63
2024/04/19 09:47:05;;;;;;;5.32;4.30;;;;;;;8.65;64.60;98362.75;5415241;26;20000;-62
2024/04/19 09:49:32;;;;;;;5.00;4.18;;;;;;;8.61;65.37;98365.34;5475026;26;20000;-62
2024/04/19 09:52:01;;;;;;;7.10;4.28;;;;;;;8.64;65.32;98359.25;5418015;26;20332;-62
2024/04/19 09:54:34;;;;;;;5.47;4.57;;;;;;;8.64;65.45;98361.16;5416672;26;20003;-63
2024/04/19 09:57:03;;;;;;;4.22;3.83;;;;;;;8.70;65.09;98355.16;5416185;26;20000;-63
2024/04/19 09:59:34;;;;;;;5.28;3.85;;;;;;;8.77;65.00;98357.31;5425932;26;19995;-62
2024/04/19 10:02:02;;;;;;;3.63;3.28;;;;;;;8.77;65.35;98349.16;5430756;26;20011;-62
2024/04/19 10:04:34;;;;;;;5.32;3.47;;;;;;;8.78;64.64;98346.09;5500253;26;20015;-64
2024/04/19 10:07:04;;;;;;;5.78;3.17;;;;;;;8.74;65.05;98350.66;5425896;26;20010;-63
2024/04/19 10:09:33;;;;;;;5.50;3.75;;;;;;;8.76;65.56;98350.31;5424161;26;20014;-62
2024/04/19 10:12:02;;;;;;;4.35;3.33;;;;;;;8.77;65.30;98339.09;5425254;26;20694;-61
2024/04/19 10:14:29;;;;;;;5.72;3.50;;;;;;;8.78;64.85;98342.59;5423754;26;20000;-63
2024/04/19 10:16:56;;;;;;;3.67;3.22;;;;;;;8.83;64.67;98336.13;5424667;26;19996;-62
2024/04/19 10:19:23;;;;;;;9.77;3.65;;;;;;;8.78;64.29;98337.16;5424244;26;20011;-62
2024/04/19 10:21:54;;;;;;;4.05;3.67;;;;;;;8.71;64.85;98331.47;5419667;26;20002;-62
2024/04/19 10:24:22;;;;;;;3.90;3.60;;;;;;;8.73;64.97;98330.00;5419414;26;20042;-63
2024/04/19 10:26:55;;;;;;;3.58;3.20;;;;;;;8.76;64.65;98321.19;5420685;26;20015;-63
2024/04/19 10:29:26;;;;;;;4.35;3.53;;;;;;;8.76;64.22;98326.63;5419967;26;19999;-61
2024/04/19 10:31:55;;;;;;;6.10;3.17;;;;;;;8.69;64.26;98314.72;5448721;26;20007;-63
2024/04/19 10:34:23;;;;;;;3.92;3.25;;;;;;;8.73;64.46;98313.69;5420065;26;20019;-62
2024/04/19 10:36:53;;;;;;;12.00;3.75;;;;;;;8.76;64.04;98313.03;5442230;26;20003;-63
2024/04/19 10:39:21;;;;;;;3.70;2.83;;;;;;;8.75;64.16;98316.88;5419465;26;20000;-62
2024/04/19 10:41:53;;;;;;;4.30;3.33;;;;;;;8.79;64.22;98304.19;5418199;26;20011;-61
2024/04/19 10:44:21;;;;;;;4.38;3.13;;;;;;;8.86;64.52;98292.72;5476939;26;20005;-62
2024/04/19 10:46:49;;;;;;;5.85;3.30;;;;;;;8.89;64.89;98299.41;5415720;26;20014;-62
2024/04/19 10:49:22;;;;;;;3.85;3.47;;;;;;;8.90;64.84;98296.34;5417722;26;19995;-62
2024/04/19 10:51:52;;;;;;;3.60;3.30;;;;;;;8.87;63.94;98283.44;5417484;26;20007;-62
2024/04/19 10:54:19;;;;;;;3.88;3.38;;;;;;;8.81;64.38;98284.81;5417455;26;20000;-61
2024/04/19 10:56:46;;;;;;;4.10;3.70;;;;;;;8.79;64.87;98276.22;5416987;26;20076;-62
2024/04/19 10:59:13;;;;;;;5.38;3.17;;;;;;;8.75;64.23;98276.13;5416429;26;20361;-62
2024/04/19 11:01:43;;;;;;;4.88;4.10;;;;;;;8.71;65.04;98264.31;5416845;26;20014;-62
2024/04/19 11:04:11;;;;;;;5.55;3.17;;;;;;;8.71;64.77;98256.16;5428190;26;20347;-63
2024/04/19 11:06:40;;;;;;;3.70;3.13;;;;;;;8.73;64.76;98261.25;5417198;26;20007;-62
2024/04/19 11:09:07;;;;;;;3.92;3.10;;;;;;;8.73;64.58;98244.94;5416753;26;19995;-61
2024/04/19 11:11:37;;;;;;;3.90;3.45;;;;;;;8.74;64.79;98243.84;5416215;26;20000;-62
2024/04/19 11:14:08;;;;;;;3.78;3.13;;;;;;;8.75;65.18;98231.81;5416153;26;20032;-62
2024/04/19 11:16:35;;;;;;;3.20;2.90;;;;;;;8.70;65.34;98229.31;5415086;26;20046;-61
2024/04/19 11:19:04;;;;;;;3.88;2.65;;;;;;;8.64;65.28;98228.78;5416564;26;20000;-64
2024/04/19 11:21:31;;;;;;;3.17;2.80;;;;;;;8.64;65.97;98230.72;5416515;26;19995;-62
2024/04/19 11:23:58;;;;;;;7.22;4.80;;;;;;;8.69;66.14;98230.47;5416917;26;20003;-62
2024/04/19 11:26:25;;;;;;;11.52;6.03;;;;;;;8.71;65.98;98231.69;5416719;26;20007;-62
2024/04/19 11:28:52;;;;;;;6.15;4.30;;;;;;;8.77;65.61;98226.84;5416759;26;20000;-62
2024/04/19 11:31:19;;;;;;;5.35;3.42;;;;;;;8.75;66.25;98221.75;5416204;26;19996;-62
2024/04/19 11:33:51;;;;;;;4.18;3.30;;;;;;;8.83;66.21;98228.19;5426829;26;19999;-62
2024/04/19 11:36:18;;;;;;;4.13;3.35;;;;;;;8.85;65.88;98223.19;5430445;26;20008;-63
2024/04/19 11:38:45;;;;;;;6.32;4.22;;;;;;;8.78;66.38;98233.84;5416012;26;20014;-62
2024/04/19 11:41:15;;;;;;;6.47;3.67;;;;;;;8.76;66.76;98219.81;5413980;26;20014;-61
2024/04/19 11:43:42;;;;;;;9.75;4.05;;;;;;;8.71;67.24;98215.38;5444617;26;19999;-61
2024/04/19 11:46:09;;;;;;;4.90;3.78;;;;;;;8.73;67.43;98207.69;5416137;26;20067;-61
2024/04/19 11:48:35;;;;;;;6.97;4.38;;;;;;;8.76;67.48;98204.31;5416113;26;20028;-61
2024/04/19 11:51:02;;;;;;;4.32;3.35;;;;;;;8.89;67.57;98198.81;5415714;26;20002;-63